Decoded Metar for LYPG (PODGORICA in SERBIA) (IATA:TGD) | Meteo·Mobile Aviation Weather
aviador You're here:

LYPG Decoded Metar

PODGORICA in SERBIA
Report Time2019-02-16 18:00:00
UTC Time2019-02-16 18:14:53
Flight Rules vfr VFR
WindVRB at 02 kt
Visibility9999 m
Phenomena:N/A
Clouds:N/A
Expected CloudBase > 3,600 ft AGL from Temp-Dew spread
CeilingNone
Temp07°C (ISA -8)
Dew Point-2°C (53% RH)
AAT4.0°C
QNH1028 hPa
Density Alt-1,220 ft
Elevation141 ft
Report Wrong Elevation
Raw Report
LYPG 161800Z VRB02KT CAVOK 07/M02 Q1028 NOSIG=

Extra information for LYPG:More info

Metar Taf Metar & Taf Last 4 Metars F.Rules Stats Wind Profile Meteogram Temp Stats Airport Information Weather charts Add Link Nearby VenuesMetar ALERT Operation Metar Decoded Social comments